Terminal Aerodrome Forecast
Issued by NWS Wilmington, OH

Current Version | Previous Version | Graphics & Text | Print | Product List | Glossary On
Versions: 1 2 3 4 5 6 7 8 9 10 11 12 13 14 15 16 17 18 19
153
FTUS41 KILN 240524
TAFILN
TAF
KILN 240524Z 2406/2506 14004KT P6SM BKN200
     FM241100 16004KT P6SM SCT050 SCT090 BKN200
     FM241500 19010KT P6SM SCT050 BKN200
     FM241800 20010G18KT P6SM BKN050
     FM250000 20006KT P6SM SCT050 BKN250=

USA.gov is the U.S. government's official web portal to all federal, state and local government web resources and services.